aviador You're here:

KGGE Decoded Metar

GEORGETOWN in SC, USA
Report Time2017-12-17 00:15:00
UTC Time2017-12-17 00:31:55
Flight Rules vfr VFR
WindCalm
Visibility9999 m
Phenomena:N/A
Clouds:N/A
Expected CloudBase > 400 ft AGL from Temp-Dew spread
CeilingNone
Temp02°C (ISA -13)
Dew Point01°C (93% RH)
AAT0.2°C
QNH1026 hPa
Density Alt-1,886 ft
Elevation39 ft
Report Wrong Elevation
Raw Report
METAR KGGE 170015Z AUTO 00000KT 10SM CLR 02/01 A3030 RMK AO2=

Extra information for KGGE:More info

Metar Taf Metar & Taf Last 4 Metars F.Rules Stats Wind Profile Meteogram Temp Stats Airport Information Weather charts Add Link Nearby VenuesMetar ALERT Operation Metar Decoded Social comments

AIRNAV info for KGGE